Flight Track Log - Related Links

Times and Time Zones

All times are in EDT time to prevent confusion due to time zone crossing. See the N510SR flight status page for this flight to view local times or setup timezone preferences in your user account.

Time Position Orientation Groundspeed Altitude Reporting Facility
EDT Latitude Longitude Course Direction KTS MPH feet Rate Location/Type
Sun 02:58:24 PM 43.5819 -72.3972 233° Southwest 390 449 5,000  Level Boston Center
Sun 02:59:24 PM 43.5342 -72.4803 232° Southwest 325 374 7,100 1,068 Climbing Boston Center
Sun 03:00:00 PM 43.4192 -72.6372 233° Southwest  Level FlightAware Approximate
Sun 03:00:22 PM 43.5028 -72.5689 244° Southwest 296 341 7,100  Level Boston Center
Sun 03:01:23 PM 43.4733 -72.6633 247° West 275 316 7,800 1,377 Climbing Boston Center
Sun 03:02:24 PM 43.4419 -72.7517 244° Southwest 267 307 9,900 2,430 Climbing Boston Center
Sun 03:03:24 PM 43.3978 -72.8631 241° Southwest 283 326 12,700 4,050 Climbing Boston Center
Sun 03:04:24 PM 43.3517 -72.9683 239° Southwest 307 353 18,000 2,420 Climbing Boston Center
Sun 03:05:23 PM 43.3011 -73.0706 236° Southwest 330 380 17,500 50 Descending Boston Center
Sun 03:06:23 PM 43.2317 -73.1667 225° Southwest 347 399 18,100 298 Climbing Boston Center
Sun 03:07:24 PM 43.1603 -73.2628 224° Southwest 359 413 18,100  Level Boston Center
Sun 03:08:24 PM 43.0864 -73.3611 224° Southwest 364 419 18,100 -203 Level Boston Center
Sun 03:09:22 PM 43.0150 -73.4539 224° Southwest 364 419 17,700 -908 Descending Boston Center
Sun 03:10:23 PM 42.9431 -73.5461 223° Southwest 359 413 16,300 -1,377 Descending Boston Center
Sun 03:11:24 PM 42.8775 -73.6358 225° Southwest 349 402 14,900 -1,131 Descending Boston Center
Sun 03:12:25 PM 42.8122 -73.7167 222° Southwest 322 371 14,000 -458 Descending Boston Center
Sun 03:13:22 PM 42.7467 -73.8028 224° Southwest 322 371 14,000  Level Boston Center
Sun 03:14:22 PM 42.6708 -73.8661 212° Southwest 328 377 14,000  Level Boston Center
Sun 03:15:23 PM 42.5931 -73.9178 206° Southwest 328 377 14,000  Level Boston Center
Sun 03:16:23 PM 42.5236 -73.9697 209° Southwest 328 377 14,000  Level Boston Center
Sun 03:17:24 PM 42.4372 -74.0353 209° Southwest 328 377 14,000  Level Boston Center
Sun 03:18:22 PM 42.3656 -74.0867 208° Southwest 328 377 14,000  Level Boston Center
Sun 03:19:22 PM 42.2811 -74.1519 210° Southwest 328 377 14,000  Level Boston Center
Sun 03:20:23 PM 42.2117 -74.2033 209° Southwest 328 377 14,000  Level Boston Center
Sun 03:21:24 PM 42.1272 -74.2653 209° Southwest 328 377 14,000  Level Boston Center
Sun 03:22:22 PM 42.0578 -74.3164 209° Southwest 322 371 14,000  Level Boston Center
Sun 03:23:23 PM 41.9711 -74.3781 208° Southwest 322 371 14,000  Level Boston Center
Sun 03:24:23 PM 41.9017 -74.4261 207° Southwest 322 371 14,000 -893 Level Boston Center
Sun 03:25:24 PM 41.8169 -74.4903 209° Southwest 317 365 12,200 -1,785 Descending Boston Center
Sun 03:26:24 PM 41.7456 -74.5269 201° Southwest 312 359 10,400 -1,866 Descending Boston Center
Sun 03:27:23 PM 41.6533 -74.5461 189° South 307 353 8,500 -1,714 Descending Boston Center
Sun 03:28:23 PM 41.5864 -74.5606 189° South 291 335 7,000 -1,250 Descending Boston Center
Sun 03:29:23 PM 41.5092 -74.5747 188° South 271 312 6,000 -326 Descending Boston Center
Sun 03:31:27 PM 41.3500 -74.6000 187° South 261 300 6,000 -95 Level New York TRACON
Sun 03:32:33 PM 41.3000 -74.5167 129° Southeast 273 314 5,700 -905 Descending New York TRACON
Sun 03:33:33 PM 41.2500 -74.4500 135° Southeast 266 306 4,100 -850 Descending New York TRACON
Sun 03:34:33 PM 41.2167 -74.3667 118° Southeast 288 331 4,000 -150 Descending New York TRACON
Sun 03:35:33 PM 41.1667 -74.2833 129° Southeast 261 300 3,800 -500 Descending New York TRACON
Sun 03:36:33 PM 41.1333 -74.2167 124° Southeast 257 296 3,000 -400 Descending New York TRACON
Sun 03:37:33 PM 41.0833 -74.1500 135° Southeast 231 266 3,000 -50 Level New York TRACON
Sun 03:38:33 PM 41.0500 -74.0833 124° Southeast 221 254 2,900 -500 Descending New York TRACON
Sun 03:39:33 PM 41.0000 -74.0500 153° Southeast 191 220 2,000 -700 Descending New York TRACON
Sun 03:40:33 PM 40.9500 -74.0500 180° South 181 208 1,500 -500 Descending New York TRACON
Sun 03:41:33 PM 40.9000 -74.0500 180° South 167 192 1,000 -500 Descending New York TRACON

Login

Don't have an account? Register now (free) for customized features, flight alerts, and more!